Weather forecast for Pikuj

Ukraine, 966 m
N48.830, E23.005


Sounding

Red line — air temperature ˚C.
Blue line — thermal bubble temperature ˚C.
Green line — dew point temperature ˚C.
Wind speed is in meters per second.

Table forecast

GFS 0.25˚ model

temp. wind gust humid. clouds prec. press. hpbl
Wed21 00:00 0 47.0 ne 2 3 82 100 0.3 1019 147
03:00 -0 44.0 ne 2 3 83 100 0.4 1019 103
06:00 -2 40.0 ne 2 3 87 100 0.0 1019 93
09:00 -1 40.0 ne 2 3 81 100 0.0 1019 139
12:00 2 38.0 ne 2 3 73 100 0.1 1020 213
15:00 4 36.0 ne 2 4 68 96 0.1 1019 407
18:00 -0 38.0 ne 2 2 90 94 0.0 1020 46
21:00 -1 43.0 ne 2 2 91 94 0.0 1021 76
 
Thu22 00:00 -1 47.0 ne 2 3 88 95 0.0 1022 94
03:00 0 53.0 ne 2 2 85 95 0.0 1023 89
06:00 0 53.0 ne 1 2 85 99 0.1 1023 73
09:00 0 53.0 ne 1 2 88 97 0.1 1024 43
12:00 4 69.0 ene 1 1 72 95 0.0 1024 235
15:00 6 259.0 w 0 0 70 85 0.1 1024 434
18:00 1 3.0 n 0 1 90 58 0.0 1025 22
21:00 0 55.0 ne 1 1 92 29 0.0 1026 22
 
Fri23 00:00 0 69.0 ene 0 1 93 0 0.0 1026 22
03:00 0 83.0 e 0 0 93 0 0.0 1027 22
06:00 0 76.0 ene 0 0 93 1 0.0 1027 22
09:00 -0 104.0 ese 0 1 94 0 0.0 1028 21
12:00 5 198.0 ssw 1 2 78 0 0.0 1028 256
15:00 5 209.0 ssw 2 3 85 48 0.0 1027 392
18:00 3 180.0 s 1 2 96 88 0.0 1027 26
21:00 1 158.0 sse 1 2 97 50 0.0 1027 22
 
Sat24 00:00 0 146.0 se 1 2 97 5 0.0 1027 25
03:00 0 162.0 sse 2 2 97 4 0.0 1026 34
06:00 1 164.0 sse 2 3 96 55 0.0 1024 101
09:00 0 175.0 s 2 4 97 48 0.0 1023 89
12:00 5 191.0 s 3 6 81 74 0.0 1021 371
15:00 5 196.0 ssw 3 7 76 87 0.0 1019 512
18:00 3 184.0 s 2 5 88 100 0.1 1018 138
21:00 2 179.0 s 2 4 91 100 0.1 1018 110
 
Sun25 00:00 2 189.0 s 2 4 89 92 0.1 1017 115
03:00 2 189.0 s 2 4 88 94 0.1 1017 166
06:00 3 189.0 s 2 5 89 99 0.1 1016 213
09:00 2 190.0 s 2 4 93 100 0.8 1015 192
12:00 3 194.0 ssw 1 3 92 99 0.1 1016 247
15:00 3 200.0 ssw 1 2 92 99 0.2 1015 223
18:00 3 196.0 ssw 1 1 97 99 0.1 1015 35
21:00 3 327.0 nnw 0 0 97 97 0.1 1015 41
 

0.009 s